createdAt,value
2017-01-31T01:01:10.368Z,1006.15
2017-01-31T01:02:10.293Z,1006.18
2017-01-31T01:03:10.233Z,1006.19
2017-01-31T01:04:10.169Z,1006.14
2017-01-31T01:05:10.106Z,1006.19
2017-01-31T01:06:10.044Z,1006.17
2017-01-31T01:07:09.981Z,1006.18
2017-01-31T01:08:09.918Z,1006.18
2017-01-31T01:09:09.857Z,1006.2
2017-01-31T01:10:09.793Z,1006.21
2017-01-31T01:11:09.729Z,1006.22
2017-01-31T01:12:09.668Z,1006.26
2017-01-31T01:13:09.605Z,1006.27
2017-01-31T01:14:09.543Z,1006.27
2017-01-31T01:15:09.479Z,1006.28
2017-01-31T01:16:09.418Z,1006.35
2017-01-31T01:17:09.354Z,1006.33
2017-01-31T01:18:09.291Z,1006.33
2017-01-31T01:19:09.229Z,1006.33
2017-01-31T01:20:09.164Z,1006.31
2017-01-31T01:21:09.104Z,1006.35
2017-01-31T01:22:09.039Z,1006.33
2017-01-31T01:23:08.977Z,1006.4
2017-01-31T01:24:08.915Z,1006.37
2017-01-31T01:25:08.853Z,1006.4
2017-01-31T01:26:08.788Z,1006.39
2017-01-31T01:27:08.727Z,1006.4
2017-01-31T01:28:08.666Z,1006.36
2017-01-31T01:29:08.601Z,1006.38
2017-01-31T01:30:08.539Z,1006.38
2017-01-31T01:31:08.476Z,1006.38
2017-01-31T01:32:08.414Z,1006.45
2017-01-31T01:33:08.348Z,1006.44
2017-01-31T01:34:08.287Z,1006.43
2017-01-31T01:35:08.227Z,1006.48
2017-01-31T01:36:08.160Z,1006.48
2017-01-31T01:37:08.097Z,1006.53
2017-01-31T01:38:08.034Z,1006.58
2017-01-31T01:39:07.978Z,1006.53
2017-01-31T01:40:07.912Z,1006.56
2017-01-31T01:41:07.847Z,1006.5
2017-01-31T01:42:07.787Z,1006.47
2017-01-31T01:43:07.721Z,1006.48
2017-01-31T01:44:07.658Z,1006.49
2017-01-31T01:45:07.598Z,1006.5
2017-01-31T01:46:07.535Z,1006.44
2017-01-31T01:47:07.472Z,1006.46
2017-01-31T01:48:07.409Z,1006.45
2017-01-31T01:49:07.347Z,1006.47
2017-01-31T01:50:07.287Z,1006.4
2017-01-31T01:51:07.222Z,1006.46
2017-01-31T01:52:07.162Z,1006.43
2017-01-31T01:53:07.096Z,1006.39
2017-01-31T01:54:07.032Z,1006.41
2017-01-31T01:55:06.970Z,1006.47
2017-01-31T01:56:06.908Z,1006.49
2017-01-31T01:57:06.845Z,1006.45
2017-01-31T01:58:06.784Z,1006.48
2017-01-31T01:59:06.719Z,1006.49
2017-01-31T02:00:06.907Z,1006.5
2017-01-31T02:01:06.594Z,1006.47
2017-01-31T02:02:06.532Z,1006.47
2017-01-31T02:03:06.472Z,1006.48
2017-01-31T02:04:06.412Z,1006.47
2017-01-31T02:05:06.343Z,1006.47
2017-01-31T02:06:06.281Z,1006.51
2017-01-31T02:07:06.216Z,1006.5
2017-01-31T02:08:06.156Z,1006.52
2017-01-31T02:09:06.092Z,1006.56
2017-01-31T02:10:06.029Z,1006.51
2017-01-31T02:11:05.967Z,1006.52
2017-01-31T02:12:05.905Z,1006.55
2017-01-31T02:13:05.842Z,1006.53
2017-01-31T02:14:05.779Z,1006.52
2017-01-31T02:15:05.716Z,1006.59
2017-01-31T02:16:05.656Z,1006.51
2017-01-31T02:17:05.590Z,1006.57
2017-01-31T02:18:05.528Z,1006.55
2017-01-31T02:19:05.466Z,1006.56
2017-01-31T02:20:05.403Z,1006.58
2017-01-31T02:21:05.340Z,1006.54
2017-01-31T02:22:05.277Z,1006.57
2017-01-31T02:23:05.215Z,1006.58
2017-01-31T02:24:05.152Z,1006.62
2017-01-31T02:25:05.088Z,1006.62
2017-01-31T02:26:05.026Z,1006.63
2017-01-31T02:27:04.964Z,1006.6
2017-01-31T02:28:04.900Z,1006.61
2017-01-31T02:29:04.838Z,1006.62
2017-01-31T02:30:04.776Z,1006.65
2017-01-31T02:31:04.713Z,1006.61
2017-01-31T02:32:04.650Z,1006.6
2017-01-31T02:33:04.588Z,1006.61
2017-01-31T02:34:04.546Z,1006.64
2017-01-31T02:35:04.462Z,1006.64
2017-01-31T02:36:04.399Z,1006.65
2017-01-31T02:37:04.337Z,1006.65
2017-01-31T02:38:04.276Z,1006.66
2017-01-31T02:39:04.211Z,1006.65
2017-01-31T02:40:04.149Z,1006.69
2017-01-31T02:41:04.087Z,1006.68
2017-01-31T02:42:04.024Z,1006.67
2017-01-31T02:43:03.960Z,1006.69
2017-01-31T02:44:03.898Z,1006.69
2017-01-31T02:45:03.835Z,1006.67
2017-01-31T02:46:03.772Z,1006.7
2017-01-31T02:47:03.712Z,1006.71
2017-01-31T02:48:03.647Z,1006.66
2017-01-31T02:49:03.585Z,1006.66
2017-01-31T02:50:03.521Z,1006.66
2017-01-31T02:51:03.461Z,1006.67
2017-01-31T02:52:03.396Z,1006.71
2017-01-31T02:53:03.333Z,1006.7
2017-01-31T02:54:03.275Z,1006.69
2017-01-31T02:55:03.207Z,1006.74
2017-01-31T02:56:03.146Z,1006.73
2017-01-31T02:57:03.082Z,1006.76
2017-01-31T02:58:03.020Z,1006.73
2017-01-31T02:59:02.956Z,1006.75
2017-01-31T03:00:02.896Z,1006.75
2017-01-31T03:01:02.836Z,1006.75
2017-01-31T03:02:02.769Z,1006.75
2017-01-31T03:03:02.707Z,1006.75
2017-01-31T03:04:02.644Z,1006.77
2017-01-31T03:05:02.580Z,1006.78
2017-01-31T03:06:02.521Z,1006.77
2017-01-31T03:07:02.456Z,1006.78
2017-01-31T03:08:02.391Z,1006.79
2017-01-31T03:09:02.329Z,1006.84
2017-01-31T03:10:02.267Z,1006.81
2017-01-31T03:11:02.205Z,1006.86
2017-01-31T03:12:02.141Z,1006.87
2017-01-31T03:13:02.079Z,1006.85
2017-01-31T03:14:02.015Z,1006.89
2017-01-31T03:15:01.953Z,1006.85
2017-01-31T03:16:01.889Z,1006.85
2017-01-31T03:17:01.829Z,1006.86
2017-01-31T03:18:01.770Z,1006.87
2017-01-31T03:19:01.700Z,1006.86
2017-01-31T03:20:01.640Z,1006.85
2017-01-31T03:21:01.578Z,1006.86
2017-01-31T03:22:01.516Z,1006.83
2017-01-31T03:23:01.451Z,1006.86
2017-01-31T03:24:01.389Z,1006.85
2017-01-31T03:25:01.326Z,1006.82
2017-01-31T03:26:01.264Z,1006.82
2017-01-31T03:27:01.201Z,1006.82
2017-01-31T03:28:01.137Z,1006.81
2017-01-31T03:29:01.074Z,1006.84
2017-01-31T03:30:01.011Z,1006.82
2017-01-31T03:31:00.950Z,1006.84
2017-01-31T03:32:00.887Z,1006.86
2017-01-31T03:33:00.823Z,1006.88
2017-01-31T03:34:00.759Z,1006.88
2017-01-31T03:35:00.698Z,1006.91
2017-01-31T03:36:00.636Z,1006.95
2017-01-31T03:37:00.572Z,1006.97
2017-01-31T03:38:00.509Z,1006.99
2017-01-31T03:39:00.447Z,1007.04
2017-01-31T03:40:00.384Z,1007.06
2017-01-31T03:41:00.320Z,1007.07
2017-01-31T03:42:00.258Z,1007
2017-01-31T03:43:00.195Z,1007.02
2017-01-31T03:44:00.133Z,1007
2017-01-31T03:45:00.070Z,1007.01
2017-01-31T03:46:00.008Z,1007.02
2017-01-31T03:46:59.945Z,1007.03
2017-01-31T03:47:59.883Z,1007.03
2017-01-31T03:48:59.818Z,1007.03
2017-01-31T03:49:59.759Z,1007.02
2017-01-31T03:50:59.693Z,1007.02
2017-01-31T03:51:59.632Z,1007.09
2017-01-31T03:52:59.574Z,1007.09
2017-01-31T03:53:59.505Z,1007.05
2017-01-31T03:54:59.444Z,1007.09
2017-01-31T03:55:59.379Z,1007.03
2017-01-31T03:56:59.316Z,1007.06
2017-01-31T03:57:59.255Z,1007.05
2017-01-31T03:58:59.191Z,1007.09
2017-01-31T03:59:59.129Z,1007.11
2017-01-31T04:00:59.066Z,1007.06
2017-01-31T04:01:59.004Z,1007.11
2017-01-31T04:02:58.942Z,1007.06
2017-01-31T04:03:58.877Z,1007.07
2017-01-31T04:04:58.816Z,1007.09
2017-01-31T04:05:58.752Z,1007.08
2017-01-31T04:06:58.689Z,1007.05
2017-01-31T04:07:58.628Z,1007.05
2017-01-31T04:08:58.565Z,1007
2017-01-31T04:09:58.501Z,1007
2017-01-31T04:10:58.439Z,1006.99
2017-01-31T04:11:58.377Z,1007.02
2017-01-31T04:12:58.315Z,1007.04
2017-01-31T04:13:58.251Z,1007
2017-01-31T04:14:58.187Z,1006.98
2017-01-31T04:15:58.126Z,1007.02
2017-01-31T04:16:58.064Z,1007.01
2017-01-31T04:17:58.000Z,1007.03
2017-01-31T04:18:57.937Z,1006.98
2017-01-31T04:19:57.876Z,1007.03
2017-01-31T04:20:57.811Z,1007.03
2017-01-31T04:21:57.749Z,1006.99
2017-01-31T04:22:57.686Z,1007
2017-01-31T04:23:57.625Z,1007.03
2017-01-31T04:24:57.560Z,1007.05
2017-01-31T04:25:57.497Z,1007.01
2017-01-31T04:26:57.435Z,1007.03
2017-01-31T04:27:57.372Z,1007.04
2017-01-31T04:28:57.309Z,1007.02
2017-01-31T04:29:57.246Z,1007.07
2017-01-31T04:30:57.184Z,1007.03
2017-01-31T04:31:57.121Z,1007.03
2017-01-31T04:32:57.060Z,1007.06
2017-01-31T04:33:56.998Z,1007.01
2017-01-31T04:34:56.936Z,1007
2017-01-31T04:35:56.902Z,1007.04
2017-01-31T04:36:56.811Z,1007.06
2017-01-31T04:37:56.746Z,1007.06
2017-01-31T04:38:56.683Z,1007.07
2017-01-31T04:39:56.621Z,1007.09
2017-01-31T04:40:56.557Z,1007.11
2017-01-31T04:41:56.494Z,1007.12
2017-01-31T04:42:56.431Z,1007.08
2017-01-31T04:43:56.369Z,1007.08
2017-01-31T04:44:56.306Z,1007.12
2017-01-31T04:45:56.245Z,1007.1
2017-01-31T04:46:56.180Z,1007.11
2017-01-31T04:47:56.119Z,1007.15
2017-01-31T04:48:56.055Z,1007.15
2017-01-31T04:49:55.994Z,1007.17
2017-01-31T04:50:55.931Z,1007.17
2017-01-31T04:51:55.868Z,1007.15
2017-01-31T04:52:55.804Z,1007.19
2017-01-31T04:53:55.742Z,1007.24
2017-01-31T04:54:55.679Z,1007.28
2017-01-31T04:55:55.616Z,1007.28
2017-01-31T04:56:55.553Z,1007.32
2017-01-31T04:57:55.491Z,1007.33
2017-01-31T04:58:55.428Z,1007.4
2017-01-31T04:59:55.367Z,1007.46
2017-01-31T05:00:55.303Z,1008.42
2017-01-31T05:01:55.239Z,1008.21
2017-01-31T05:02:55.177Z,1007.86
2017-01-31T05:03:55.114Z,1007.71
2017-01-31T05:04:55.050Z,1007.74
2017-01-31T05:05:54.988Z,1007.7
2017-01-31T05:06:54.925Z,1007.73
2017-01-31T05:07:54.862Z,1007.75
2017-01-31T05:08:54.799Z,1007.73
2017-01-31T05:09:54.737Z,1007.8
2017-01-31T05:10:54.675Z,1007.8
2017-01-31T05:11:54.612Z,1007.85
2017-01-31T05:12:54.548Z,1007.83
2017-01-31T05:13:54.486Z,1007.81
2017-01-31T05:14:54.423Z,1007.81
2017-01-31T05:15:54.360Z,1007.8
2017-01-31T05:16:54.298Z,1007.84
2017-01-31T05:17:54.238Z,1007.82
2017-01-31T05:18:54.172Z,1007.8
2017-01-31T05:19:54.109Z,1007.82
2017-01-31T05:20:54.046Z,1007.82
2017-01-31T05:21:53.987Z,1007.79
2017-01-31T05:22:53.948Z,1007.81
2017-01-31T05:23:53.858Z,1007.78
2017-01-31T05:24:53.823Z,1007.84
2017-01-31T05:25:53.732Z,1007.86
2017-01-31T05:26:53.668Z,1007.87
2017-01-31T05:27:53.607Z,1007.86
2017-01-31T05:28:53.745Z,1007.84
2017-01-31T05:29:53.483Z,1007.82
2017-01-31T05:30:53.418Z,1007.84
2017-01-31T05:31:53.358Z,1007.83
2017-01-31T05:32:53.293Z,1007.83
2017-01-31T05:33:53.230Z,1007.82
2017-01-31T05:34:53.167Z,1007.85
2017-01-31T05:35:53.105Z,1007.82
2017-01-31T05:36:53.043Z,1007.86
2017-01-31T05:37:52.978Z,1007.88
2017-01-31T05:38:52.916Z,1007.88
2017-01-31T05:39:52.853Z,1007.9
2017-01-31T05:40:52.793Z,1007.94
2017-01-31T05:41:52.727Z,1007.99
2017-01-31T05:42:52.664Z,1008
2017-01-31T05:43:52.602Z,1008.02
2017-01-31T05:44:52.539Z,1008.06
2017-01-31T05:45:52.477Z,1008.1
2017-01-31T05:46:52.415Z,1008.12
2017-01-31T05:47:52.351Z,1008.2
2017-01-31T05:48:52.288Z,1008.21
2017-01-31T05:49:52.226Z,1008.27
2017-01-31T05:50:52.162Z,1008.27
2017-01-31T05:51:52.100Z,1008.27
2017-01-31T05:52:52.038Z,1008.22
2017-01-31T05:53:51.974Z,1008.26
2017-01-31T05:54:51.910Z,1008.28
2017-01-31T05:55:51.849Z,1008.25
2017-01-31T05:56:51.785Z,1008.28
2017-01-31T05:57:51.723Z,1008.31
2017-01-31T05:58:51.667Z,1008.38
2017-01-31T05:59:51.597Z,1008.34
2017-01-31T06:00:51.533Z,1008.37
2017-01-31T06:01:51.471Z,1008.38
2017-01-31T06:02:51.409Z,1008.36
2017-01-31T06:03:51.346Z,1008.35
2017-01-31T06:04:51.282Z,1008.38
2017-01-31T06:05:51.220Z,1008.4
2017-01-31T06:06:51.156Z,1008.4
2017-01-31T06:07:51.095Z,1008.45
2017-01-31T06:08:51.031Z,1008.45
2017-01-31T06:09:50.970Z,1008.45
2017-01-31T06:10:50.906Z,1008.46
2017-01-31T06:11:50.841Z,1008.45
2017-01-31T06:12:50.780Z,1008.46
2017-01-31T06:13:50.717Z,1008.46
2017-01-31T06:14:50.654Z,1008.43
2017-01-31T06:15:50.591Z,1008.45
2017-01-31T06:16:50.530Z,1008.46
2017-01-31T06:17:50.467Z,1008.5
2017-01-31T06:18:50.402Z,1008.47
2017-01-31T06:19:50.341Z,1008.52
2017-01-31T06:20:50.278Z,1008.53
2017-01-31T06:21:50.213Z,1008.57
2017-01-31T06:22:50.151Z,1008.58
2017-01-31T06:23:50.089Z,1008.61
2017-01-31T06:24:50.027Z,1008.58
2017-01-31T06:25:49.963Z,1008.59
2017-01-31T06:26:49.899Z,1008.63
2017-01-31T06:27:49.837Z,1008.64
2017-01-31T06:28:49.774Z,1008.69
2017-01-31T06:29:49.711Z,1008.67
2017-01-31T06:30:49.648Z,1008.72
2017-01-31T06:31:49.585Z,1008.76
2017-01-31T06:32:49.521Z,1008.58
2017-01-31T06:33:49.461Z,1008.57
2017-01-31T06:34:49.397Z,1008.55
2017-01-31T06:35:49.337Z,1008.59
2017-01-31T06:36:49.271Z,1008.6
2017-01-31T06:37:49.208Z,1008.57
2017-01-31T06:38:49.146Z,1008.58
2017-01-31T06:39:49.083Z,1008.62
2017-01-31T06:40:49.020Z,1008.66
2017-01-31T06:41:48.957Z,1008.65
2017-01-31T06:42:48.900Z,1008.67
2017-01-31T06:43:48.831Z,1008.72
2017-01-31T06:44:48.774Z,1008.71
2017-01-31T06:45:48.706Z,1008.76
2017-01-31T06:46:48.643Z,1008.75
2017-01-31T06:47:48.579Z,1008.77
2017-01-31T06:48:48.517Z,1008.78
2017-01-31T06:49:48.456Z,1008.79
2017-01-31T06:50:48.391Z,1008.82
2017-01-31T06:51:48.328Z,1008.8
2017-01-31T06:52:48.267Z,1008.85
2017-01-31T06:53:48.204Z,1008.87
2017-01-31T06:54:48.140Z,1008.89
2017-01-31T06:55:48.077Z,1008.92
2017-01-31T06:56:48.014Z,1008.95
2017-01-31T06:57:47.953Z,1008.94
2017-01-31T06:58:47.889Z,1008.89
2017-01-31T06:59:47.826Z,1008.89
2017-01-31T07:00:47.768Z,1008.87
2017-01-31T07:01:47.700Z,1008.91
2017-01-31T07:02:47.637Z,1008.97
2017-01-31T07:03:47.574Z,1008.94
2017-01-31T07:04:47.512Z,1008.92
2017-01-31T07:05:47.449Z,1008.95
2017-01-31T07:06:47.387Z,1008.91
2017-01-31T07:07:47.323Z,1008.91
2017-01-31T07:08:47.262Z,1008.89
2017-01-31T07:09:47.197Z,1008.87
2017-01-31T07:10:47.134Z,1008.88
2017-01-31T07:11:47.072Z,1008.86
2017-01-31T07:12:47.009Z,1008.89
2017-01-31T07:13:46.947Z,1008.92
2017-01-31T07:14:46.883Z,1008.94
2017-01-31T07:15:46.821Z,1008.91
2017-01-31T07:16:46.756Z,1008.99
2017-01-31T07:17:46.695Z,1009.02
2017-01-31T07:18:46.631Z,1009.04
2017-01-31T07:19:46.570Z,1009.05
2017-01-31T07:20:46.508Z,1009.09
2017-01-31T07:21:46.444Z,1009.1
2017-01-31T07:22:46.382Z,1009.17
2017-01-31T07:23:46.318Z,1009.19
2017-01-31T07:24:46.256Z,1009.21
2017-01-31T07:25:46.193Z,1009.26
2017-01-31T07:26:46.131Z,1009.28
2017-01-31T07:27:46.067Z,1009.32
2017-01-31T07:28:46.012Z,1009.32
2017-01-31T07:29:45.942Z,1009.34
2017-01-31T07:30:45.877Z,1009.34
2017-01-31T07:31:45.815Z,1009.35
2017-01-31T07:32:45.753Z,1009.34
2017-01-31T07:33:45.689Z,1009.37
2017-01-31T07:34:45.627Z,1009.38
2017-01-31T07:35:45.566Z,1009.4
2017-01-31T07:36:45.501Z,1009.42
2017-01-31T07:37:45.439Z,1009.42
2017-01-31T07:38:45.375Z,1009.42
2017-01-31T07:39:45.312Z,1009.41
2017-01-31T07:40:45.252Z,1009.38
2017-01-31T07:41:45.187Z,1009.41
2017-01-31T07:42:45.124Z,1009.39
2017-01-31T07:43:45.061Z,1009.39
2017-01-31T07:44:45.001Z,1009.4
2017-01-31T07:45:44.935Z,1009.39
2017-01-31T07:46:44.872Z,1009.39
2017-01-31T07:47:44.810Z,1009.39
2017-01-31T07:48:44.748Z,1009.38
2017-01-31T07:49:44.684Z,1009.38
2017-01-31T07:50:44.621Z,1009.41
2017-01-31T07:51:44.561Z,1009.41
2017-01-31T07:52:44.495Z,1009.43
2017-01-31T07:53:44.432Z,1009.4
2017-01-31T07:54:44.370Z,1009.4
2017-01-31T07:55:44.310Z,1009.41
2017-01-31T07:56:44.243Z,1009.38
2017-01-31T07:57:44.185Z,1009.43
2017-01-31T07:58:44.119Z,1009.45
2017-01-31T07:59:44.056Z,1009.48
2017-01-31T08:00:43.994Z,1009.49
2017-01-31T08:01:43.929Z,1009.54
2017-01-31T08:02:43.867Z,1009.55
2017-01-31T08:03:43.803Z,1009.57
2017-01-31T08:04:43.742Z,1009.57
2017-01-31T08:05:43.677Z,1009.62
2017-01-31T08:06:43.621Z,1009.62
2017-01-31T08:07:43.555Z,1009.63
2017-01-31T08:08:43.489Z,1009.67
2017-01-31T08:09:43.425Z,1009.65
2017-01-31T08:10:43.364Z,1009.69
2017-01-31T08:11:43.309Z,1009.69
2017-01-31T08:12:43.238Z,1009.67
2017-01-31T08:13:43.176Z,1009.72
2017-01-31T08:14:43.113Z,1009.7
2017-01-31T08:15:43.049Z,1009.71
2017-01-31T08:16:42.987Z,1009.75
2017-01-31T08:17:42.924Z,1009.71
2017-01-31T08:18:42.861Z,1009.74
2017-01-31T08:19:42.799Z,1009.74
2017-01-31T08:20:42.735Z,1009.77
2017-01-31T08:21:42.673Z,1009.76
2017-01-31T08:22:42.609Z,1009.76
2017-01-31T08:23:42.549Z,1009.82
2017-01-31T08:24:42.484Z,1009.84
2017-01-31T08:25:42.420Z,1009.85
2017-01-31T08:26:42.356Z,1009.81
2017-01-31T08:27:42.306Z,1009.86
2017-01-31T08:28:42.243Z,1009.9
2017-01-31T08:29:42.169Z,1009.88
2017-01-31T08:30:42.365Z,1009.87
2017-01-31T08:31:42.057Z,1009.88
2017-01-31T08:32:41.989Z,1009.9
2017-01-31T08:33:41.918Z,1009.86
2017-01-31T08:34:41.856Z,1009.9
2017-01-31T08:35:41.807Z,1009.9
2017-01-31T08:36:41.728Z,1009.89
2017-01-31T08:37:41.666Z,1009.91
2017-01-31T08:38:41.604Z,1009.9
2017-01-31T08:39:41.544Z,1009.93
2017-01-31T08:40:41.576Z,1009.97
2017-01-31T08:41:41.414Z,1009.95
2017-01-31T08:42:41.353Z,1009.98
2017-01-31T08:43:41.290Z,1009.97
2017-01-31T08:44:41.225Z,1010.01
2017-01-31T08:45:41.163Z,1010.02
2017-01-31T08:46:41.101Z,1010.03
2017-01-31T08:47:41.036Z,1010.05
2017-01-31T08:48:40.976Z,1010.04
2017-01-31T08:49:40.914Z,1010.04
2017-01-31T08:50:40.856Z,1010.05
2017-01-31T08:51:40.785Z,1010.02
2017-01-31T08:52:40.723Z,1010.01
2017-01-31T08:53:40.660Z,1010.07
2017-01-31T08:54:40.597Z,1010.06
2017-01-31T08:55:40.534Z,1010.08
2017-01-31T08:56:40.472Z,1010.06
2017-01-31T08:57:40.409Z,1010.08
2017-01-31T08:58:40.346Z,1010.11
2017-01-31T08:59:40.283Z,1010.1
2017-01-31T09:00:40.470Z,1010.13
2017-01-31T09:01:40.164Z,1010.15
2017-01-31T09:02:40.097Z,1010.16
2017-01-31T09:03:40.033Z,1010.15
2017-01-31T09:04:39.971Z,1010.19
2017-01-31T09:05:40.156Z,1010.18
2017-01-31T09:06:39.843Z,1010.2
2017-01-31T09:07:39.784Z,1010.21
2017-01-31T09:08:39.717Z,1010.21
2017-01-31T09:09:39.654Z,1010.23
2017-01-31T09:10:39.692Z,1010.25
2017-01-31T09:11:39.530Z,1010.28
2017-01-31T09:12:39.472Z,1010.27
2017-01-31T09:13:39.403Z,1010.25
2017-01-31T09:14:39.341Z,1010.33
2017-01-31T09:15:39.289Z,1010.33
2017-01-31T09:16:39.215Z,1010.33
2017-01-31T09:17:39.150Z,1010.35
2017-01-31T09:18:39.089Z,1010.33
2017-01-31T09:19:39.027Z,1010.32
2017-01-31T09:20:39.213Z,1010.35
2017-01-31T09:21:38.900Z,1010.33
2017-01-31T09:22:38.836Z,1010.34
2017-01-31T09:23:38.777Z,1010.31
2017-01-31T09:24:38.713Z,1010.33
2017-01-31T09:25:38.648Z,1010.33
2017-01-31T09:26:38.586Z,1010.33
2017-01-31T09:27:38.523Z,1010.36
2017-01-31T09:28:38.462Z,1010.38
2017-01-31T09:29:38.398Z,1010.34
2017-01-31T09:30:38.335Z,1010.36
2017-01-31T09:31:38.271Z,1010.37
2017-01-31T09:32:38.209Z,1010.38
2017-01-31T09:33:38.145Z,1010.41
2017-01-31T09:34:38.084Z,1010.36
2017-01-31T09:35:38.020Z,1010.46
2017-01-31T09:36:37.958Z,1010.43
2017-01-31T09:37:37.895Z,1010.45
2017-01-31T09:38:37.833Z,1010.46
2017-01-31T09:39:37.770Z,1010.47
2017-01-31T09:40:37.707Z,1010.48
2017-01-31T09:41:37.644Z,1010.52
2017-01-31T09:42:37.581Z,1010.53
2017-01-31T09:43:37.519Z,1010.52
2017-01-31T09:44:37.455Z,1010.59
2017-01-31T09:45:37.393Z,1010.57
2017-01-31T09:46:37.329Z,1010.58
2017-01-31T09:47:37.267Z,1010.62
2017-01-31T09:48:37.204Z,1010.64
2017-01-31T09:49:37.142Z,1010.69
2017-01-31T09:50:37.079Z,1010.73
2017-01-31T09:51:37.017Z,1010.69
2017-01-31T09:52:36.954Z,1010.73
2017-01-31T09:53:36.890Z,1010.68
2017-01-31T09:54:36.830Z,1010.68
2017-01-31T09:55:36.766Z,1010.69
2017-01-31T09:56:36.704Z,1010.66
2017-01-31T09:57:36.639Z,1010.72
2017-01-31T09:58:36.576Z,1010.74
2017-01-31T09:59:36.516Z,1010.69
2017-01-31T10:00:36.702Z,1010.7
2017-01-31T10:01:36.390Z,1010.71
2017-01-31T10:02:36.329Z,1010.71
2017-01-31T10:03:36.263Z,1010.71
2017-01-31T10:04:36.200Z,1010.68
2017-01-31T10:05:36.139Z,1010.65
2017-01-31T10:06:36.076Z,1010.67
2017-01-31T10:07:36.014Z,1010.69
2017-01-31T10:08:35.950Z,1010.63
2017-01-31T10:09:35.889Z,1010.63
2017-01-31T10:10:35.825Z,1010.65
2017-01-31T10:11:35.763Z,1010.64
2017-01-31T10:12:35.701Z,1010.68
2017-01-31T10:13:35.637Z,1010.7
2017-01-31T10:14:35.575Z,1010.66
2017-01-31T10:15:35.862Z,1010.71
2017-01-31T10:16:35.449Z,1010.69
2017-01-31T10:17:35.386Z,1010.66
2017-01-31T10:18:35.326Z,1010.65
2017-01-31T10:19:35.264Z,1010.68
2017-01-31T10:20:35.199Z,1010.7
2017-01-31T10:21:35.137Z,1010.67
2017-01-31T10:22:35.073Z,1010.72
2017-01-31T10:23:35.009Z,1010.7
2017-01-31T10:24:34.948Z,1010.71
2017-01-31T10:25:34.886Z,1010.75
2017-01-31T10:26:34.821Z,1010.78
2017-01-31T10:27:34.759Z,1010.77
2017-01-31T10:28:34.697Z,1010.78
2017-01-31T10:29:34.641Z,1010.79
2017-01-31T10:30:34.572Z,1010.79
2017-01-31T10:31:34.510Z,1010.79
2017-01-31T10:32:34.448Z,1010.77
2017-01-31T10:33:34.384Z,1010.78
2017-01-31T10:34:34.321Z,1010.82
2017-01-31T10:35:34.259Z,1010.8
2017-01-31T10:36:34.196Z,1010.81
2017-01-31T10:37:34.132Z,1010.84
2017-01-31T10:38:34.071Z,1010.86
2017-01-31T10:39:34.009Z,1010.89
2017-01-31T10:40:33.946Z,1010.92
2017-01-31T10:41:33.891Z,1010.96
2017-01-31T10:42:33.819Z,1010.95
2017-01-31T10:43:33.757Z,1010.99
2017-01-31T10:44:33.696Z,1011.03
2017-01-31T10:45:33.634Z,1011.04
2017-01-31T10:46:33.570Z,1011.05
2017-01-31T10:47:33.524Z,1011.06
2017-01-31T10:48:33.487Z,1011.02
2017-01-31T10:49:33.381Z,1011.05
2017-01-31T10:50:33.340Z,1011.03
2017-01-31T10:51:33.256Z,1011.04
2017-01-31T10:52:33.196Z,1011.08
2017-01-31T10:53:33.132Z,1011.08
2017-01-31T10:54:33.071Z,1011.14
2017-01-31T10:55:33.006Z,1011.15
2017-01-31T10:56:32.946Z,1011.14
2017-01-31T10:57:32.881Z,1011.14
2017-01-31T10:58:32.819Z,1011.14
2017-01-31T10:59:32.757Z,1011.14
2017-01-31T11:00:32.694Z,1011.13
2017-01-31T11:01:32.631Z,1011.15
2017-01-31T11:02:32.569Z,1011.15
2017-01-31T11:03:32.506Z,1011.21
2017-01-31T11:04:32.448Z,1011.21
2017-01-31T11:05:32.382Z,1011.2
2017-01-31T11:06:32.319Z,1011.2
2017-01-31T11:07:32.257Z,1011.19
2017-01-31T11:08:32.194Z,1011.17
2017-01-31T11:09:32.131Z,1011.23
2017-01-31T11:10:32.069Z,1011.16
2017-01-31T11:11:32.007Z,1011.15
2017-01-31T11:12:31.946Z,1011.14
2017-01-31T11:13:31.882Z,1011.16
2017-01-31T11:14:31.818Z,1011.17
2017-01-31T11:15:31.757Z,1011.12
2017-01-31T11:16:31.694Z,1011.15
2017-01-31T11:17:31.631Z,1011.16
2017-01-31T11:18:31.570Z,1011.19
2017-01-31T11:19:31.507Z,1011.19
2017-01-31T11:20:31.447Z,1011.22
2017-01-31T11:21:31.381Z,1011.21
2017-01-31T11:22:31.320Z,1011.2
2017-01-31T11:23:31.256Z,1011.22
2017-01-31T11:24:31.198Z,1011.17
2017-01-31T11:25:31.132Z,1011.16
2017-01-31T11:26:31.069Z,1011.15
2017-01-31T11:27:31.007Z,1011.14
2017-01-31T11:28:30.943Z,1011.17
2017-01-31T11:29:30.881Z,1011.25
2017-01-31T11:30:30.819Z,1011.26
2017-01-31T11:31:30.757Z,1011.27
2017-01-31T11:32:30.696Z,1011.31
2017-01-31T11:33:30.638Z,1011.31
2017-01-31T11:34:30.569Z,1011.37
2017-01-31T11:35:30.507Z,1011.32
2017-01-31T11:36:30.444Z,1011.36
2017-01-31T11:37:30.381Z,1011.36
2017-01-31T11:38:30.324Z,1011.4
2017-01-31T11:39:30.257Z,1011.42
2017-01-31T11:40:30.194Z,1011.38
2017-01-31T11:41:30.130Z,1011.4
2017-01-31T11:42:30.070Z,1011.37
2017-01-31T11:43:30.007Z,1011.39
2017-01-31T11:44:29.943Z,1011.39
2017-01-31T11:45:29.884Z,1011.43
2017-01-31T11:46:29.825Z,1011.4
2017-01-31T11:47:29.756Z,1011.41
2017-01-31T11:48:29.694Z,1011.43
2017-01-31T11:49:29.630Z,1011.45
2017-01-31T11:50:29.867Z,1011.47
2017-01-31T11:51:29.506Z,1011.46
2017-01-31T11:52:29.443Z,1011.46
2017-01-31T11:53:29.381Z,1011.42
2017-01-31T11:54:29.319Z,1011.45
2017-01-31T11:55:29.506Z,1011.42
2017-01-31T11:56:29.193Z,1011.46
2017-01-31T11:57:29.129Z,1011.5
2017-01-31T11:58:29.069Z,1011.51
2017-01-31T11:59:29.010Z,1011.46
2017-01-31T12:00:28.943Z,1011.47
2017-01-31T12:01:28.880Z,1011.45
2017-01-31T12:02:28.818Z,1011.43
2017-01-31T12:03:28.755Z,1011.44
2017-01-31T12:04:28.694Z,1011.5
2017-01-31T12:05:28.631Z,1011.47
2017-01-31T12:06:28.567Z,1011.44
2017-01-31T12:07:28.510Z,1011.45
2017-01-31T12:08:28.444Z,1011.46
2017-01-31T12:09:28.381Z,1011.5
2017-01-31T12:10:28.668Z,1011.57
2017-01-31T12:11:28.257Z,1011.56
2017-01-31T12:12:28.192Z,1011.56
2017-01-31T12:13:28.129Z,1011.56
2017-01-31T12:14:28.068Z,1011.56
2017-01-31T12:15:28.005Z,1011.57
2017-01-31T12:16:27.947Z,1011.57
2017-01-31T12:17:27.881Z,1011.58
2017-01-31T12:18:27.818Z,1011.61
2017-01-31T12:19:27.755Z,1011.56
2017-01-31T12:20:27.692Z,1011.63
2017-01-31T12:21:27.629Z,1011.62
2017-01-31T12:22:27.600Z,1011.59
2017-01-31T12:23:27.504Z,1011.61
2017-01-31T12:24:27.440Z,1011.6
2017-01-31T12:25:27.379Z,1011.55
2017-01-31T12:26:27.316Z,1011.58
2017-01-31T12:27:27.255Z,1011.59
2017-01-31T12:28:27.191Z,1011.58
2017-01-31T12:29:27.129Z,1011.57
2017-01-31T12:30:27.066Z,1011.57
2017-01-31T12:31:27.004Z,1011.58
2017-01-31T12:32:26.940Z,1011.57
2017-01-31T12:33:26.879Z,1011.59
2017-01-31T12:34:26.814Z,1011.64
2017-01-31T12:35:26.755Z,1011.64
2017-01-31T12:36:26.694Z,1011.69
2017-01-31T12:37:26.627Z,1011.7
2017-01-31T12:38:26.565Z,1011.7
2017-01-31T12:39:26.501Z,1011.71
2017-01-31T12:40:26.442Z,1011.67
2017-01-31T12:41:26.378Z,1011.7
2017-01-31T12:42:26.314Z,1011.72
2017-01-31T12:43:26.253Z,1011.78
2017-01-31T12:44:26.189Z,1011.74
2017-01-31T12:45:26.127Z,1011.73
2017-01-31T12:46:26.065Z,1011.74
2017-01-31T12:47:26.002Z,1011.7
2017-01-31T12:48:25.938Z,1011.75
2017-01-31T12:49:25.877Z,1011.75
2017-01-31T12:50:25.813Z,1011.8
2017-01-31T12:51:25.750Z,1011.8
2017-01-31T12:52:25.687Z,1011.81
2017-01-31T12:53:25.625Z,1011.85
2017-01-31T12:54:25.563Z,1011.85
2017-01-31T12:55:25.500Z,1011.84
2017-01-31T12:56:25.438Z,1011.91
2017-01-31T12:57:25.375Z,1011.87
2017-01-31T12:58:25.311Z,1011.87
2017-01-31T12:59:25.249Z,1011.9
2017-01-31T13:00:25.211Z,1011.87
2017-01-31T13:01:25.124Z,1011.9
2017-01-31T13:02:25.092Z,1011.92
2017-01-31T13:03:24.999Z,1011.89
2017-01-31T13:04:24.937Z,1011.93
2017-01-31T13:05:24.873Z,1011.96
2017-01-31T13:06:24.813Z,1011.94
2017-01-31T13:07:24.749Z,1011.95
2017-01-31T13:08:24.726Z,1011.93